Hauptseite
METAR-TAF:

METAR-TAF

Flughäfen :

Flughafen Augsburg

Augsburg, Deutschland

Breite: 48-26N, Länge: 010-56E, Höhe: 461 m

Beobachtung

Neuester Wetterbericht von vor 40 Minuten, um 03:50 UTC
Wind 4 kt aus Nord/Nordost
Temperatur -4°C
Luftfeuchtigkeit 86%
Luftdruck 1018 hPa
Sichtweite: 4500 m

METAR: EDMA 210350Z AUTO 02004KT 4500 // OVC007/// M04/M06 Q1018

Zeit: 05:30 (04:30 UTC)

Prognose

Neuester Wetterbericht von vor 11 Stunden und 30 Minuten, um 17:00 UTC
Gültige Prognose vom 20 um 18 UTC bis 21 um 03 UTC
Wind 4 kt aus Ost/Nordost
Sichtweite: 4000 m
Durchbrochene Bewölkung in der Höhe von 2500 ft
feuchter Dunst
Zeitweise
vom 20 um 18 UTC bis 21 um 03 UTC
Sichtweite: 2500 m
Durchbrochene Bewölkung in der Höhe von 700 ft
feuchter Dunst

TAF: EDMA 201700Z 2018/2103 06004KT 4000 BR BKN025 TEMPO 2018/2103 2500 BR BKN007

Wetterbeobachtungen und Prognosen von mehr als 4000 Flughäfen (METAR und TAF Bericht).

Die verfügbaren Stationen werden durch gelbe und rote Markierungen auf der Karte dargestellt.

Führen Sie die Maus auf sie, um den Namen der Station zu sehen.

Darauf klicken, um die Beobachtung von Wetterbeobachtungen und Prognosen zu sehen.

Um die Karte zu ändern : klicken Sie auf den grünen Tasten mit einem schwarzen Kreuz Zum Vergrößern, auf den grünen Button mit einem Gedankenstrich zu verkleinern, oder auf die grünen Pfeile für benachbarte Karten.


METAR-TAF: